Kezdőlap
METAR-TAF:

METAR-TAF

Repülőterek :

Saglek Bay, Újfundland és Labrador, Kanada

földrajzi szélesség: 58-20N, földrajzi hosszúság: 062-35W, magasság: 483 m

Jelenlegi meteorológiai megfigyelések

A jelentés 25 perccel ezelõtt készült, 04:00 UTC
Délnyugati szél 20 kt széllökések: 27 kt
Hőmérséklet -15°C
Páratartalom 92%
Légköri nyomás 988 hPa
Szakadozott felhőzet 400 lábon
Szakadozott felhőzet 3500 lábon
Borult 4900 lábon

METAR: CWZZ 090400Z AUTO 23020G27KT ////SM BKN004 BKN035 OVC049 M15/M16 A2917

Idő: 00:25 (04:25 UTC)


TAF: hiányzik

Meteorológiai megfigyelések és előrejelzések több, mint 4000 repülőtéren (METAR és TAF jelentéseket).

A térképen piros és sárga pontok jelzik az elérhető meteorológiai állomásokat.

Mozgassa az egeret a pont fölött, hogy megjelenjen az állomás neve.

Azután kattintson az időjárási megfigyelések és előrejelzések megtekintéséhez.

A térkép megváltoztatása: kattintson a fekete keresztel jelölt zöld gombra ráközelítéshez, a vonallal jelölt zöld gombra távolításhoz, vagy a zöld nyilakra a szomszédos térképek eléréséhez.


METAR-TAF: